sensor_id;sensor_type;location;lat;lon;timestamp;temperature;humidity
52044;DHT22;38053;53.100;6.078;2022-12-29T00:02:19;9.70;99.90
52044;DHT22;38053;53.100;6.078;2022-12-29T00:04:45;9.80;99.90
52044;DHT22;38053;53.100;6.078;2022-12-29T00:07:11;9.80;99.90
52044;DHT22;38053;53.100;6.078;2022-12-29T00:09:37;9.80;99.90
52044;DHT22;38053;53.100;6.078;2022-12-29T00:12:03;9.90;99.90
52044;DHT22;38053;53.100;6.078;2022-12-29T00:14:29;9.90;99.90
52044;DHT22;38053;53.100;6.078;2022-12-29T00:17:14;9.90;99.90
52044;DHT22;38053;53.100;6.078;2022-12-29T00:19:40;10.00;99.90
52044;DHT22;38053;53.100;6.078;2022-12-29T00:22:25;10.00;99.90
52044;DHT22;38053;53.100;6.078;2022-12-29T00:25:11;10.10;99.90
52044;DHT22;38053;53.100;6.078;2022-12-29T00:27:56;10.10;99.90
52044;DHT22;38053;53.100;6.078;2022-12-29T00:30:40;10.10;99.90
52044;DHT22;38053;53.100;6.078;2022-12-29T00:33:30;10.10;99.90
52044;DHT22;38053;53.100;6.078;2022-12-29T00:36:34;10.10;99.90
52044;DHT22;38053;53.100;6.078;2022-12-29T00:39:09;10.20;99.90
52044;DHT22;38053;53.100;6.078;2022-12-29T00:41:54;10.20;99.90
52044;DHT22;38053;53.100;6.078;2022-12-29T00:44:38;10.20;99.90
52044;DHT22;38053;53.100;6.078;2022-12-29T00:47:03;10.20;99.90
52044;DHT22;38053;53.100;6.078;2022-12-29T00:49:30;10.10;99.90
52044;DHT22;38053;53.100;6.078;2022-12-29T00:52:16;10.10;99.90
52044;DHT22;38053;53.100;6.078;2022-12-29T00:54:41;10.10;99.90
52044;DHT22;38053;53.100;6.078;2022-12-29T00:57:10;10.10;99.90
52044;DHT22;38053;53.100;6.078;2022-12-29T00:59:38;10.10;99.90
52044;DHT22;38053;53.100;6.078;2022-12-29T01:02:05;10.20;99.90
52044;DHT22;38053;53.100;6.078;2022-12-29T01:04:30;10.20;99.90
52044;DHT22;38053;53.100;6.078;2022-12-29T01:06:56;10.20;99.90
52044;DHT22;38053;53.100;6.078;2022-12-29T01:09:22;10.20;99.90
52044;DHT22;38053;53.100;6.078;2022-12-29T01:12:07;10.20;99.90
52044;DHT22;38053;53.100;6.078;2022-12-29T01:14:34;10.20;99.90
52044;DHT22;38053;53.100;6.078;2022-12-29T01:16:59;10.30;99.90
52044;DHT22;38053;53.100;6.078;2022-12-29T01:19:25;10.30;99.90
52044;DHT22;38053;53.100;6.078;2022-12-29T01:21:51;10.30;99.90
52044;DHT22;38053;53.100;6.078;2022-12-29T01:24:18;10.30;99.90
52044;DHT22;38053;53.100;6.078;2022-12-29T01:26:44;10.30;99.90
52044;DHT22;38053;53.100;6.078;2022-12-29T01:29:10;10.30;99.90
52044;DHT22;38053;53.100;6.078;2022-12-29T01:31:36;10.30;99.90
52044;DHT22;38053;53.100;6.078;2022-12-29T01:34:02;10.20;99.90
52044;DHT22;38053;53.100;6.078;2022-12-29T01:36:28;10.20;99.90
52044;DHT22;38053;53.100;6.078;2022-12-29T01:38:55;10.20;99.90
52044;DHT22;38053;53.100;6.078;2022-12-29T01:41:21;10.10;99.90
52044;DHT22;38053;53.100;6.078;2022-12-29T01:46:41;10.00;99.90
52044;DHT22;38053;53.100;6.078;2022-12-29T01:49:23;10.00;99.90
52044;DHT22;38053;53.100;6.078;2022-12-29T01:52:03;10.00;99.90
52044;DHT22;38053;53.100;6.078;2022-12-29T01:54:44;10.00;99.90
52044;DHT22;38053;53.100;6.078;2022-12-29T01:57:16;9.90;99.90
52044;DHT22;38053;53.100;6.078;2022-12-29T01:59:48;9.90;99.90
52044;DHT22;38053;53.100;6.078;2022-12-29T02:02:15;9.90;99.90
52044;DHT22;38053;53.100;6.078;2022-12-29T02:04:43;9.80;99.90
52044;DHT22;38053;53.100;6.078;2022-12-29T02:07:18;9.80;99.90
52044;DHT22;38053;53.100;6.078;2022-12-29T02:09:50;9.70;99.90
52044;DHT22;38053;53.100;6.078;2022-12-29T02:12:18;9.70;99.90
52044;DHT22;38053;53.100;6.078;2022-12-29T02:14:47;9.70;99.90
52044;DHT22;38053;53.100;6.078;2022-12-29T02:31:41;9.70;99.90
52044;DHT22;38053;53.100;6.078;2022-12-29T02:40:22;9.70;99.90
52044;DHT22;38053;53.100;6.078;2022-12-29T02:46:22;9.80;99.90
52044;DHT22;38053;53.100;6.078;2022-12-29T02:49:13;9.80;99.90
52044;DHT22;38053;53.100;6.078;2022-12-29T02:52:04;9.90;99.90
52044;DHT22;38053;53.100;6.078;2022-12-29T02:54:32;9.90;99.90
52044;DHT22;38053;53.100;6.078;2022-12-29T02:59:57;9.90;99.90
52044;DHT22;38053;53.100;6.078;2022-12-29T03:06:13;9.90;99.90
52044;DHT22;38053;53.100;6.078;2022-12-29T03:08:45;9.90;99.90
52044;DHT22;38053;53.100;6.078;2022-12-29T03:11:12;9.90;99.90
52044;DHT22;38053;53.100;6.078;2022-12-29T03:14:07;9.80;99.90
52044;DHT22;38053;53.100;6.078;2022-12-29T03:17:07;9.80;99.90
52044;DHT22;38053;53.100;6.078;2022-12-29T03:19:38;9.70;99.90
52044;DHT22;38053;53.100;6.078;2022-12-29T03:22:11;9.60;99.90
52044;DHT22;38053;53.100;6.078;2022-12-29T03:27:33;9.50;99.90
52044;DHT22;38053;53.100;6.078;2022-12-29T03:30:02;9.40;99.90
52044;DHT22;38053;53.100;6.078;2022-12-29T03:32:32;9.30;99.90
52044;DHT22;38053;53.100;6.078;2022-12-29T03:34:59;9.20;99.90
52044;DHT22;38053;53.100;6.078;2022-12-29T03:37:30;9.20;99.90
52044;DHT22;38053;53.100;6.078;2022-12-29T03:39:57;9.20;99.90
52044;DHT22;38053;53.100;6.078;2022-12-29T03:42:25;9.20;99.90
52044;DHT22;38053;53.100;6.078;2022-12-29T03:44:54;9.20;99.90
52044;DHT22;38053;53.100;6.078;2022-12-29T03:47:21;9.20;99.90
52044;DHT22;38053;53.100;6.078;2022-12-29T03:49:48;9.20;99.90
52044;DHT22;38053;53.100;6.078;2022-12-29T03:52:14;9.20;99.90
52044;DHT22;38053;53.100;6.078;2022-12-29T03:54:40;9.20;99.90
52044;DHT22;38053;53.100;6.078;2022-12-29T03:57:06;9.20;99.90
52044;DHT22;38053;53.100;6.078;2022-12-29T03:59:32;9.20;99.90
52044;DHT22;38053;53.100;6.078;2022-12-29T04:01:57;9.20;99.90
52044;DHT22;38053;53.100;6.078;2022-12-29T04:04:23;9.20;99.90
52044;DHT22;38053;53.100;6.078;2022-12-29T04:06:49;9.20;99.90
52044;DHT22;38053;53.100;6.078;2022-12-29T04:09:14;9.20;99.90
52044;DHT22;38053;53.100;6.078;2022-12-29T04:11:40;9.20;99.90
52044;DHT22;38053;53.100;6.078;2022-12-29T04:14:06;9.30;99.90
52044;DHT22;38053;53.100;6.078;2022-12-29T04:16:31;9.20;99.90
52044;DHT22;38053;53.100;6.078;2022-12-29T04:18:58;9.20;99.90
52044;DHT22;38053;53.100;6.078;2022-12-29T04:21:24;9.20;99.90
52044;DHT22;38053;53.100;6.078;2022-12-29T04:23:50;9.20;99.90
52044;DHT22;38053;53.100;6.078;2022-12-29T04:26:15;9.10;99.90
52044;DHT22;38053;53.100;6.078;2022-12-29T04:28:41;9.10;99.90
52044;DHT22;38053;53.100;6.078;2022-12-29T04:31:07;9.10;99.90
52044;DHT22;38053;53.100;6.078;2022-12-29T04:33:32;9.10;99.90
52044;DHT22;38053;53.100;6.078;2022-12-29T04:35:58;9.00;99.90
52044;DHT22;38053;53.100;6.078;2022-12-29T04:38:24;9.00;99.90
52044;DHT22;38053;53.100;6.078;2022-12-29T04:40:50;9.00;99.90
52044;DHT22;38053;53.100;6.078;2022-12-29T04:43:16;8.90;99.90
52044;DHT22;38053;53.100;6.078;2022-12-29T04:45:45;8.90;99.90
52044;DHT22;38053;53.100;6.078;2022-12-29T04:48:11;8.90;99.90
52044;DHT22;38053;53.100;6.078;2022-12-29T04:50:37;8.80;99.90
52044;DHT22;38053;53.100;6.078;2022-12-29T04:53:02;8.80;99.90
52044;DHT22;38053;53.100;6.078;2022-12-29T04:55:28;8.70;99.90
52044;DHT22;38053;53.100;6.078;2022-12-29T04:57:54;8.70;99.90
52044;DHT22;38053;53.100;6.078;2022-12-29T05:00:20;8.70;99.90
52044;DHT22;38053;53.100;6.078;2022-12-29T05:02:45;8.70;99.90
52044;DHT22;38053;53.100;6.078;2022-12-29T05:05:11;8.60;99.90
52044;DHT22;38053;53.100;6.078;2022-12-29T05:07:37;8.60;99.90
52044;DHT22;38053;53.100;6.078;2022-12-29T05:10:03;8.60;99.90
52044;DHT22;38053;53.100;6.078;2022-12-29T05:12:34;8.60;99.90
52044;DHT22;38053;53.100;6.078;2022-12-29T05:15:00;8.60;99.90
52044;DHT22;38053;53.100;6.078;2022-12-29T05:17:28;8.50;99.90
52044;DHT22;38053;53.100;6.078;2022-12-29T05:19:54;8.50;99.90
52044;DHT22;38053;53.100;6.078;2022-12-29T05:22:19;8.50;99.90
52044;DHT22;38053;53.100;6.078;2022-12-29T05:24:45;8.50;99.90
52044;DHT22;38053;53.100;6.078;2022-12-29T05:27:11;8.40;99.90
52044;DHT22;38053;53.100;6.078;2022-12-29T05:29:37;8.50;99.90
52044;DHT22;38053;53.100;6.078;2022-12-29T05:32:02;8.50;99.90
52044;DHT22;38053;53.100;6.078;2022-12-29T05:34:28;8.50;99.90
52044;DHT22;38053;53.100;6.078;2022-12-29T05:36:54;8.50;99.90
52044;DHT22;38053;53.100;6.078;2022-12-29T05:39:19;8.50;99.90
52044;DHT22;38053;53.100;6.078;2022-12-29T05:41:45;8.60;99.90
52044;DHT22;38053;53.100;6.078;2022-12-29T05:44:11;8.70;99.90
52044;DHT22;38053;53.100;6.078;2022-12-29T05:46:37;8.70;99.90
52044;DHT22;38053;53.100;6.078;2022-12-29T05:49:03;8.80;99.90
52044;DHT22;38053;53.100;6.078;2022-12-29T05:51:28;8.80;99.90
52044;DHT22;38053;53.100;6.078;2022-12-29T05:53:54;8.80;99.90
52044;DHT22;38053;53.100;6.078;2022-12-29T05:56:20;8.80;99.90
52044;DHT22;38053;53.100;6.078;2022-12-29T05:58:45;8.90;99.90
52044;DHT22;38053;53.100;6.078;2022-12-29T06:01:11;8.90;99.90
52044;DHT22;38053;53.100;6.078;2022-12-29T06:03:37;8.90;99.90
52044;DHT22;38053;53.100;6.078;2022-12-29T06:06:02;8.90;99.90
52044;DHT22;38053;53.100;6.078;2022-12-29T06:08:28;8.90;99.90
52044;DHT22;38053;53.100;6.078;2022-12-29T06:10:54;8.90;99.90
52044;DHT22;38053;53.100;6.078;2022-12-29T06:13:20;8.80;99.90
52044;DHT22;38053;53.100;6.078;2022-12-29T06:15:48;8.80;99.90
52044;DHT22;38053;53.100;6.078;2022-12-29T06:18:14;8.80;99.90
52044;DHT22;38053;53.100;6.078;2022-12-29T06:20:40;8.70;99.90
52044;DHT22;38053;53.100;6.078;2022-12-29T06:23:06;8.70;99.90
52044;DHT22;38053;53.100;6.078;2022-12-29T06:25:32;8.70;99.90
52044;DHT22;38053;53.100;6.078;2022-12-29T06:27:59;8.70;99.90
52044;DHT22;38053;53.100;6.078;2022-12-29T06:30:25;8.60;99.90
52044;DHT22;38053;53.100;6.078;2022-12-29T06:32:52;8.60;99.90
52044;DHT22;38053;53.100;6.078;2022-12-29T06:35:17;8.60;99.90
52044;DHT22;38053;53.100;6.078;2022-12-29T06:37:43;8.60;99.90
52044;DHT22;38053;53.100;6.078;2022-12-29T06:40:09;8.60;99.90
52044;DHT22;38053;53.100;6.078;2022-12-29T06:42:35;8.50;99.90
52044;DHT22;38053;53.100;6.078;2022-12-29T06:45:01;8.50;99.90
52044;DHT22;38053;53.100;6.078;2022-12-29T06:47:27;8.50;99.90
52044;DHT22;38053;53.100;6.078;2022-12-29T06:49:53;8.50;99.90
52044;DHT22;38053;53.100;6.078;2022-12-29T06:52:18;8.50;99.90
52044;DHT22;38053;53.100;6.078;2022-12-29T06:54:44;8.50;99.90
52044;DHT22;38053;53.100;6.078;2022-12-29T06:57:10;8.50;99.90
52044;DHT22;38053;53.100;6.078;2022-12-29T06:59:35;8.60;99.90
52044;DHT22;38053;53.100;6.078;2022-12-29T07:02:01;8.60;99.90
52044;DHT22;38053;53.100;6.078;2022-12-29T07:04:28;8.60;99.90
52044;DHT22;38053;53.100;6.078;2022-12-29T07:06:53;8.60;99.90
52044;DHT22;38053;53.100;6.078;2022-12-29T07:09:19;8.60;99.90
52044;DHT22;38053;53.100;6.078;2022-12-29T07:11:45;8.60;99.90
52044;DHT22;38053;53.100;6.078;2022-12-29T07:14:11;8.60;99.90
52044;DHT22;38053;53.100;6.078;2022-12-29T07:16:37;8.70;99.90
52044;DHT22;38053;53.100;6.078;2022-12-29T07:19:03;8.70;99.90
52044;DHT22;38053;53.100;6.078;2022-12-29T07:21:29;8.70;99.90
52044;DHT22;38053;53.100;6.078;2022-12-29T07:23:55;8.80;99.90
52044;DHT22;38053;53.100;6.078;2022-12-29T07:26:21;8.80;99.90
52044;DHT22;38053;53.100;6.078;2022-12-29T07:28:47;8.80;99.90
52044;DHT22;38053;53.100;6.078;2022-12-29T07:31:18;8.80;99.90
52044;DHT22;38053;53.100;6.078;2022-12-29T07:33:44;8.80;99.90
52044;DHT22;38053;53.100;6.078;2022-12-29T07:36:11;8.80;99.90
52044;DHT22;38053;53.100;6.078;2022-12-29T07:38:38;8.80;99.90
52044;DHT22;38053;53.100;6.078;2022-12-29T07:41:04;8.90;99.90
52044;DHT22;38053;53.100;6.078;2022-12-29T07:43:29;8.90;99.90
52044;DHT22;38053;53.100;6.078;2022-12-29T07:45:55;8.90;99.90
52044;DHT22;38053;53.100;6.078;2022-12-29T07:48:21;8.80;99.90
52044;DHT22;38053;53.100;6.078;2022-12-29T07:50:47;8.90;99.90
52044;DHT22;38053;53.100;6.078;2022-12-29T07:53:13;8.90;99.90
52044;DHT22;38053;53.100;6.078;2022-12-29T07:55:38;8.90;99.90
52044;DHT22;38053;53.100;6.078;2022-12-29T07:58:04;8.90;99.90
52044;DHT22;38053;53.100;6.078;2022-12-29T08:00:30;8.90;99.90
52044;DHT22;38053;53.100;6.078;2022-12-29T08:02:55;8.90;99.90
52044;DHT22;38053;53.100;6.078;2022-12-29T08:05:22;8.90;99.90
52044;DHT22;38053;53.100;6.078;2022-12-29T08:07:47;8.90;99.90
52044;DHT22;38053;53.100;6.078;2022-12-29T08:10:13;8.90;99.90
52044;DHT22;38053;53.100;6.078;2022-12-29T08:12:40;8.90;99.90
52044;DHT22;38053;53.100;6.078;2022-12-29T08:15:07;8.90;99.90
52044;DHT22;38053;53.100;6.078;2022-12-29T08:17:33;8.90;99.90
52044;DHT22;38053;53.100;6.078;2022-12-29T08:19:59;9.00;99.90
52044;DHT22;38053;53.100;6.078;2022-12-29T08:22:25;8.90;99.90
52044;DHT22;38053;53.100;6.078;2022-12-29T08:24:51;8.90;99.90
52044;DHT22;38053;53.100;6.078;2022-12-29T08:27:17;8.90;99.90
52044;DHT22;38053;53.100;6.078;2022-12-29T08:29:43;8.90;99.90
52044;DHT22;38053;53.100;6.078;2022-12-29T08:32:09;8.90;99.90
52044;DHT22;38053;53.100;6.078;2022-12-29T08:34:35;8.90;99.90
52044;DHT22;38053;53.100;6.078;2022-12-29T08:37:00;8.90;99.90
52044;DHT22;38053;53.100;6.078;2022-12-29T08:39:26;8.90;99.90
52044;DHT22;38053;53.100;6.078;2022-12-29T08:41:53;8.90;99.90
52044;DHT22;38053;53.100;6.078;2022-12-29T08:44:18;8.90;99.90
52044;DHT22;38053;53.100;6.078;2022-12-29T08:46:44;8.90;99.90
52044;DHT22;38053;53.100;6.078;2022-12-29T08:49:10;8.90;99.90
52044;DHT22;38053;53.100;6.078;2022-12-29T08:51:35;9.00;99.90
52044;DHT22;38053;53.100;6.078;2022-12-29T08:54:01;9.00;99.90
52044;DHT22;38053;53.100;6.078;2022-12-29T08:56:27;9.00;99.90
52044;DHT22;38053;53.100;6.078;2022-12-29T08:58:53;9.00;99.90
52044;DHT22;38053;53.100;6.078;2022-12-29T09:01:19;8.90;99.90
52044;DHT22;38053;53.100;6.078;2022-12-29T09:03:45;8.90;99.90
52044;DHT22;38053;53.100;6.078;2022-12-29T09:06:11;8.90;99.90
52044;DHT22;38053;53.100;6.078;2022-12-29T09:08:36;8.90;99.90
52044;DHT22;38053;53.100;6.078;2022-12-29T09:11:13;8.90;99.90
52044;DHT22;38053;53.100;6.078;2022-12-29T09:13:40;8.80;99.90
52044;DHT22;38053;53.100;6.078;2022-12-29T09:16:06;8.90;99.90
52044;DHT22;38053;53.100;6.078;2022-12-29T09:18:32;8.90;99.90
52044;DHT22;38053;53.100;6.078;2022-12-29T09:20:59;8.80;99.90
52044;DHT22;38053;53.100;6.078;2022-12-29T09:23:25;8.80;99.90
52044;DHT22;38053;53.100;6.078;2022-12-29T09:25:52;8.80;99.90
52044;DHT22;38053;53.100;6.078;2022-12-29T09:28:18;8.80;99.90
52044;DHT22;38053;53.100;6.078;2022-12-29T09:30:44;8.80;99.90
52044;DHT22;38053;53.100;6.078;2022-12-29T09:33:09;8.80;99.90
52044;DHT22;38053;53.100;6.078;2022-12-29T09:35:35;8.90;99.90
52044;DHT22;38053;53.100;6.078;2022-12-29T09:38:02;8.90;99.90
52044;DHT22;38053;53.100;6.078;2022-12-29T09:40:30;8.90;99.90
52044;DHT22;38053;53.100;6.078;2022-12-29T09:45:45;8.90;99.90
52044;DHT22;38053;53.100;6.078;2022-12-29T09:48:26;8.80;99.90
52044;DHT22;38053;53.100;6.078;2022-12-29T09:50:57;8.80;99.90
52044;DHT22;38053;53.100;6.078;2022-12-29T09:55:59;8.70;99.90
52044;DHT22;38053;53.100;6.078;2022-12-29T10:01:17;8.60;99.90
52044;DHT22;38053;53.100;6.078;2022-12-29T10:03:52;8.40;99.90
52044;DHT22;38053;53.100;6.078;2022-12-29T10:25:37;8.10;99.90
52044;DHT22;38053;53.100;6.078;2022-12-29T10:28:10;8.10;99.90
52044;DHT22;38053;53.100;6.078;2022-12-29T10:30:40;8.10;99.90
52044;DHT22;38053;53.100;6.078;2022-12-29T10:33:10;8.20;99.90
52044;DHT22;38053;53.100;6.078;2022-12-29T10:35:39;8.20;99.90
52044;DHT22;38053;53.100;6.078;2022-12-29T10:38:35;8.30;99.90
52044;DHT22;38053;53.100;6.078;2022-12-29T10:41:30;8.30;99.90
52044;DHT22;38053;53.100;6.078;2022-12-29T10:44:00;8.30;99.90
52044;DHT22;38053;53.100;6.078;2022-12-29T10:46:34;8.40;99.90
52044;DHT22;38053;53.100;6.078;2022-12-29T10:49:01;8.40;99.90
52044;DHT22;38053;53.100;6.078;2022-12-29T10:51:35;8.50;99.90
52044;DHT22;38053;53.100;6.078;2022-12-29T10:54:20;8.50;99.90
52044;DHT22;38053;53.100;6.078;2022-12-29T10:56:51;8.50;99.90
52044;DHT22;38053;53.100;6.078;2022-12-29T10:59:23;8.50;99.90
52044;DHT22;38053;53.100;6.078;2022-12-29T11:05:03;8.50;99.90
52044;DHT22;38053;53.100;6.078;2022-12-29T11:07:33;8.50;99.90
52044;DHT22;38053;53.100;6.078;2022-12-29T11:12:55;8.50;99.90
52044;DHT22;38053;53.100;6.078;2022-12-29T11:15:21;8.60;99.90
52044;DHT22;38053;53.100;6.078;2022-12-29T11:17:53;8.60;99.90
52044;DHT22;38053;53.100;6.078;2022-12-29T11:20:35;8.60;99.90
52044;DHT22;38053;53.100;6.078;2022-12-29T11:23:04;8.70;99.90
52044;DHT22;38053;53.100;6.078;2022-12-29T11:25:30;8.70;99.90
52044;DHT22;38053;53.100;6.078;2022-12-29T11:28:18;8.70;99.90
52044;DHT22;38053;53.100;6.078;2022-12-29T11:30:43;8.80;99.90
52044;DHT22;38053;53.100;6.078;2022-12-29T11:33:10;8.80;99.90
52044;DHT22;38053;53.100;6.078;2022-12-29T11:35:40;9.00;99.90
52044;DHT22;38053;53.100;6.078;2022-12-29T11:38:23;9.00;99.90
52044;DHT22;38053;53.100;6.078;2022-12-29T11:40:54;9.10;99.90
52044;DHT22;38053;53.100;6.078;2022-12-29T11:43:34;9.20;99.90
52044;DHT22;38053;53.100;6.078;2022-12-29T11:46:03;9.30;99.90
52044;DHT22;38053;53.100;6.078;2022-12-29T11:48:33;9.30;99.90
52044;DHT22;38053;53.100;6.078;2022-12-29T11:51:03;9.40;99.90
52044;DHT22;38053;53.100;6.078;2022-12-29T11:53:37;9.50;99.90
52044;DHT22;38053;53.100;6.078;2022-12-29T11:56:32;9.70;99.90
52044;DHT22;38053;53.100;6.078;2022-12-29T11:58:58;10.00;99.90
52044;DHT22;38053;53.100;6.078;2022-12-29T12:01:44;10.20;99.90
52044;DHT22;38053;53.100;6.078;2022-12-29T12:04:19;10.30;99.90
52044;DHT22;38053;53.100;6.078;2022-12-29T12:06:52;10.10;99.90
52044;DHT22;38053;53.100;6.078;2022-12-29T12:09:26;10.00;99.90
52044;DHT22;38053;53.100;6.078;2022-12-29T12:11:55;9.80;99.90
52044;DHT22;38053;53.100;6.078;2022-12-29T12:14:41;9.60;99.90
52044;DHT22;38053;53.100;6.078;2022-12-29T12:17:23;9.50;99.90
52044;DHT22;38053;53.100;6.078;2022-12-29T12:19:59;9.50;99.90
52044;DHT22;38053;53.100;6.078;2022-12-29T12:22:33;9.40;99.90
52044;DHT22;38053;53.100;6.078;2022-12-29T12:25:03;9.30;99.90
52044;DHT22;38053;53.100;6.078;2022-12-29T12:27:51;9.30;99.90
52044;DHT22;38053;53.100;6.078;2022-12-29T12:30:20;9.30;99.90
52044;DHT22;38053;53.100;6.078;2022-12-29T12:33:00;9.30;99.90
52044;DHT22;38053;53.100;6.078;2022-12-29T12:43:38;9.30;99.90
52044;DHT22;38053;53.100;6.078;2022-12-29T12:46:10;9.30;99.90
52044;DHT22;38053;53.100;6.078;2022-12-29T12:49:05;9.30;99.90
52044;DHT22;38053;53.100;6.078;2022-12-29T12:57:26;9.20;99.90
52044;DHT22;38053;53.100;6.078;2022-12-29T13:00:00;9.20;99.90
52044;DHT22;38053;53.100;6.078;2022-12-29T13:02:44;9.20;99.90
52044;DHT22;38053;53.100;6.078;2022-12-29T13:08:33;9.20;99.90
52044;DHT22;38053;53.100;6.078;2022-12-29T13:17:20;9.20;99.90
52044;DHT22;38053;53.100;6.078;2022-12-29T13:23:46;9.20;99.90
52044;DHT22;38053;53.100;6.078;2022-12-29T13:26:22;9.20;99.90
52044;DHT22;38053;53.100;6.078;2022-12-29T13:29:29;9.20;99.90
52044;DHT22;38053;53.100;6.078;2022-12-29T13:32:42;9.10;99.90
52044;DHT22;38053;53.100;6.078;2022-12-29T13:35:33;9.20;99.90
52044;DHT22;38053;53.100;6.078;2022-12-29T13:38:29;9.30;99.90
52044;DHT22;38053;53.100;6.078;2022-12-29T13:41:00;9.30;99.90
52044;DHT22;38053;53.100;6.078;2022-12-29T13:43:29;9.40;99.90
52044;DHT22;38053;53.100;6.078;2022-12-29T13:46:04;9.40;99.90
52044;DHT22;38053;53.100;6.078;2022-12-29T13:48:58;9.50;99.90
52044;DHT22;38053;53.100;6.078;2022-12-29T13:51:26;9.50;99.90
52044;DHT22;38053;53.100;6.078;2022-12-29T13:54:13;9.60;99.90
52044;DHT22;38053;53.100;6.078;2022-12-29T13:56:45;9.60;99.90
52044;DHT22;38053;53.100;6.078;2022-12-29T14:05:03;9.30;99.90
52044;DHT22;38053;53.100;6.078;2022-12-29T14:07:30;9.20;99.90
52044;DHT22;38053;53.100;6.078;2022-12-29T14:10:01;9.10;99.90
52044;DHT22;38053;53.100;6.078;2022-12-29T14:12:37;9.00;99.90
52044;DHT22;38053;53.100;6.078;2022-12-29T14:17:35;8.90;99.90
52044;DHT22;38053;53.100;6.078;2022-12-29T14:20:02;8.90;99.90
52044;DHT22;38053;53.100;6.078;2022-12-29T14:22:29;8.80;99.90
52044;DHT22;38053;53.100;6.078;2022-12-29T14:24:55;8.80;99.90
52044;DHT22;38053;53.100;6.078;2022-12-29T14:29:50;8.70;99.90
52044;DHT22;38053;53.100;6.078;2022-12-29T14:34:55;8.60;99.90
52044;DHT22;38053;53.100;6.078;2022-12-29T14:40:05;8.40;99.90
52044;DHT22;38053;53.100;6.078;2022-12-29T14:42:32;8.40;99.90
52044;DHT22;38053;53.100;6.078;2022-12-29T14:45:02;8.40;99.90
52044;DHT22;38053;53.100;6.078;2022-12-29T14:47:31;8.30;99.90
52044;DHT22;38053;53.100;6.078;2022-12-29T14:52:52;8.30;99.90
52044;DHT22;38053;53.100;6.078;2022-12-29T14:55:39;8.20;99.90
52044;DHT22;38053;53.100;6.078;2022-12-29T14:58:20;8.20;99.90
52044;DHT22;38053;53.100;6.078;2022-12-29T15:00:48;8.20;99.90
52044;DHT22;38053;53.100;6.078;2022-12-29T15:03:36;8.10;99.90
52044;DHT22;38053;53.100;6.078;2022-12-29T15:06:10;8.10;99.90
52044;DHT22;38053;53.100;6.078;2022-12-29T15:09:01;8.10;99.90
52044;DHT22;38053;53.100;6.078;2022-12-29T15:11:44;8.10;99.90
52044;DHT22;38053;53.100;6.078;2022-12-29T15:17:00;8.00;99.90
52044;DHT22;38053;53.100;6.078;2022-12-29T15:19:27;8.00;99.90
52044;DHT22;38053;53.100;6.078;2022-12-29T15:21:55;7.90;99.90
52044;DHT22;38053;53.100;6.078;2022-12-29T15:24:22;7.90;99.90
52044;DHT22;38053;53.100;6.078;2022-12-29T15:26:53;7.90;99.90
52044;DHT22;38053;53.100;6.078;2022-12-29T15:29:43;7.90;99.90
52044;DHT22;38053;53.100;6.078;2022-12-29T15:32:17;7.90;99.90
52044;DHT22;38053;53.100;6.078;2022-12-29T15:34:45;7.90;99.90
52044;DHT22;38053;53.100;6.078;2022-12-29T15:37:19;7.90;99.90
52044;DHT22;38053;53.100;6.078;2022-12-29T15:39:45;7.90;99.90
52044;DHT22;38053;53.100;6.078;2022-12-29T15:45:15;7.90;99.90
52044;DHT22;38053;53.100;6.078;2022-12-29T15:47:43;7.90;99.90
52044;DHT22;38053;53.100;6.078;2022-12-29T15:52:40;7.90;99.90
52044;DHT22;38053;53.100;6.078;2022-12-29T15:55:35;8.00;99.90
52044;DHT22;38053;53.100;6.078;2022-12-29T15:58:04;7.90;99.90
52044;DHT22;38053;53.100;6.078;2022-12-29T16:00:33;7.90;99.90
52044;DHT22;38053;53.100;6.078;2022-12-29T16:03:01;7.90;99.90
52044;DHT22;38053;53.100;6.078;2022-12-29T16:05:35;7.70;99.90
52044;DHT22;38053;53.100;6.078;2022-12-29T16:08:03;7.70;99.90
52044;DHT22;38053;53.100;6.078;2022-12-29T16:10:36;7.60;99.90
52044;DHT22;38053;53.100;6.078;2022-12-29T16:13:26;7.50;99.90
52044;DHT22;38053;53.100;6.078;2022-12-29T16:15:59;7.40;99.90
52044;DHT22;38053;53.100;6.078;2022-12-29T16:18:32;7.30;99.90
52044;DHT22;38053;53.100;6.078;2022-12-29T16:21:00;7.30;99.90
52044;DHT22;38053;53.100;6.078;2022-12-29T16:23:27;7.20;99.90
52044;DHT22;38053;53.100;6.078;2022-12-29T16:25:55;7.20;99.90
52044;DHT22;38053;53.100;6.078;2022-12-29T16:28:40;7.10;99.90
52044;DHT22;38053;53.100;6.078;2022-12-29T16:31:24;7.10;99.90
52044;DHT22;38053;53.100;6.078;2022-12-29T16:33:54;7.10;99.90
52044;DHT22;38053;53.100;6.078;2022-12-29T16:36:32;7.00;99.90
52044;DHT22;38053;53.100;6.078;2022-12-29T16:39:19;7.00;99.90
52044;DHT22;38053;53.100;6.078;2022-12-29T16:41:49;6.90;99.90
52044;DHT22;38053;53.100;6.078;2022-12-29T16:44:29;6.90;99.90
52044;DHT22;38053;53.100;6.078;2022-12-29T16:49:41;6.90;99.90
52044;DHT22;38053;53.100;6.078;2022-12-29T16:52:33;6.90;99.90
52044;DHT22;38053;53.100;6.078;2022-12-29T16:54:59;6.80;99.90
52044;DHT22;38053;53.100;6.078;2022-12-29T16:57:31;6.90;99.90
52044;DHT22;38053;53.100;6.078;2022-12-29T17:00:00;6.90;99.90
52044;DHT22;38053;53.100;6.078;2022-12-29T17:02:28;6.90;99.90
52044;DHT22;38053;53.100;6.078;2022-12-29T17:04:55;6.90;99.90
52044;DHT22;38053;53.100;6.078;2022-12-29T17:07:23;7.00;99.90
52044;DHT22;38053;53.100;6.078;2022-12-29T17:09:49;7.00;99.90
52044;DHT22;38053;53.100;6.078;2022-12-29T17:12:27;7.00;99.90
52044;DHT22;38053;53.100;6.078;2022-12-29T17:14:58;7.00;99.90
52044;DHT22;38053;53.100;6.078;2022-12-29T17:22:32;7.10;99.90
52044;DHT22;38053;53.100;6.078;2022-12-29T17:24:59;7.10;99.90
52044;DHT22;38053;53.100;6.078;2022-12-29T17:27:37;7.10;99.90
52044;DHT22;38053;53.100;6.078;2022-12-29T17:30:16;7.10;99.90
52044;DHT22;38053;53.100;6.078;2022-12-29T17:32:45;7.20;99.90
52044;DHT22;38053;53.100;6.078;2022-12-29T17:35:15;7.20;99.90
52044;DHT22;38053;53.100;6.078;2022-12-29T17:37:41;7.20;99.90
52044;DHT22;38053;53.100;6.078;2022-12-29T17:40:18;7.20;99.90
52044;DHT22;38053;53.100;6.078;2022-12-29T17:42:47;7.20;99.90
52044;DHT22;38053;53.100;6.078;2022-12-29T17:45:19;7.10;99.90
52044;DHT22;38053;53.100;6.078;2022-12-29T17:47:47;7.10;99.90
52044;DHT22;38053;53.100;6.078;2022-12-29T17:50:17;7.10;99.90
52044;DHT22;38053;53.100;6.078;2022-12-29T17:52:54;7.10;99.90
52044;DHT22;38053;53.100;6.078;2022-12-29T17:55:39;7.10;99.90
52044;DHT22;38053;53.100;6.078;2022-12-29T17:58:23;7.10;99.90
52044;DHT22;38053;53.100;6.078;2022-12-29T18:00:55;7.10;99.90
52044;DHT22;38053;53.100;6.078;2022-12-29T18:03:29;7.10;99.90
52044;DHT22;38053;53.100;6.078;2022-12-29T18:05:56;7.10;99.90
52044;DHT22;38053;53.100;6.078;2022-12-29T18:08:21;7.00;99.90
52044;DHT22;38053;53.100;6.078;2022-12-29T18:10:48;7.00;99.90
52044;DHT22;38053;53.100;6.078;2022-12-29T18:13:26;7.00;99.90
52044;DHT22;38053;53.100;6.078;2022-12-29T18:15:53;7.00;99.90
52044;DHT22;38053;53.100;6.078;2022-12-29T18:18:22;7.00;99.90
52044;DHT22;38053;53.100;6.078;2022-12-29T18:20:50;7.00;99.90